Dugspur, Virginia
Current Conditions -  °F | °C
As of 7:35 AM on Monday 22 Dec 2014 (Local Time) from KHLX Reporting Station
Overcast Overcast  
Wind Chill: 29°   Ceiling: 1100
Heat Index: 33°   Visibility: 7mi
Dew Point: 31°   Wind: 5mph
Humidity: 92%   Direction: 70°ENE
Pressure: 30.1"   Gusts: NA
Location:  36.82°N, 80.61°W
Report Text: KHLX 221235Z AUTO 07004KT 7SM OVC011 01/M01 A3010 RMK AO2 T00051007
Loading
Personal Weather Stations






























Interactive Weather Map New forecast layout! Learn more

10-Day Weather Forecast

Advertisements
Track Severe Weather on mobile